Time;durP1;ratioP1;P1;durP2;ratioP2;P2;SDS_P1;SDS_P2;PMS_P1;PMS_P2;Temp;Humidity;BMP_temperature;BMP_pressure;BME280_temperature;BME280_humidity;BME280_pressure;Samples;Min_cycle;Max_cycle;Signal;HPM_P1;HPM_P2
2023/04/06 00:00:56;;;;;;;15.00;10.43;;;3.00;53.20;;;;;;5095135;28;20039;-72
2023/04/06 00:03:22;;;;;;;16.35;10.85;;;3.00;53.30;;;;;;5095253;28;20396;-72
2023/04/06 00:05:48;;;;;;;15.23;11.18;;;2.90;53.30;;;;;;5095096;28;20468;-74
2023/04/06 00:08:14;;;;;;;14.80;10.30;;;2.90;53.60;;;;;;5094927;28;20027;-73
2023/04/06 00:10:39;;;;;;;16.90;10.82;;;2.80;53.60;;;;;;5095239;28;20479;-73
2023/04/06 00:13:06;;;;;;;17.73;11.32;;;2.80;53.80;;;;;;5094956;28;20443;-74
2023/04/06 00:15:32;;;;;;;17.13;11.07;;;2.80;54.00;;;;;;5094966;28;20446;-76
2023/04/06 00:17:57;;;;;;;14.68;10.48;;;2.80;53.90;;;;;;5094822;28;20024;-74
2023/04/06 00:20:23;;;;;;;12.88;9.52;;;2.80;54.10;;;;;;5094921;28;20465;-73
2023/04/06 00:22:48;;;;;;;15.32;10.32;;;2.80;54.00;;;;;;5095121;28;20024;-73
2023/04/06 00:25:15;;;;;;;13.25;10.23;;;2.90;54.10;;;;;;5094734;28;20035;-74
2023/04/06 00:27:41;;;;;;;16.92;10.07;;;2.90;53.80;;;;;;5094655;28;20032;-72
2023/04/06 00:30:07;;;;;;;14.52;10.35;;;3.00;53.70;;;;;;5077340;28;20047;-74
2023/04/06 00:32:34;;;;;;;13.18;10.43;;;3.00;53.60;;;;;;5094966;28;20093;-74
2023/04/06 00:35:01;;;;;;;13.88;10.20;;;3.10;53.30;;;;;;5094748;28;20027;-73
2023/04/06 00:37:27;;;;;;;15.30;10.40;;;3.00;53.40;;;;;;5094621;28;20035;-75
2023/04/06 00:39:52;;;;;;;12.57;10.20;;;3.00;53.30;;;;;;5094459;28;20036;-74
2023/04/06 00:42:25;;;;;;;15.48;10.43;;;2.90;53.50;;;;;;5094961;28;20542;-73
2023/04/06 00:44:57;;;;;;;15.32;10.60;;;2.80;53.70;;;;;;5094311;28;20024;-73
2023/04/06 00:47:27;;;;;;;15.10;10.60;;;2.70;53.80;;;;;;5093913;28;20055;-74
2023/04/06 00:49:54;;;;;;;14.75;9.95;;;2.70;53.90;;;;;;5094334;28;20491;-74
2023/04/06 00:52:20;;;;;;;15.65;10.07;;;2.70;54.00;;;;;;5094525;28;20040;-74
2023/04/06 00:54:46;;;;;;;15.88;9.65;;;2.60;53.90;;;;;;5094073;28;20032;-76
2023/04/06 00:57:12;;;;;;;14.48;8.88;;;2.70;53.90;;;;;;5093954;28;20020;-73
2023/04/06 00:59:38;;;;;;;14.90;10.27;;;2.80;54.20;;;;;;5093856;28;20020;-74
2023/04/06 01:02:04;;;;;;;17.17;10.73;;;2.80;54.10;;;;;;5094467;28;20031;-75
2023/04/06 01:04:30;;;;;;;14.93;10.85;;;2.70;54.20;;;;;;5094129;28;20028;-74
2023/04/06 01:06:55;;;;;;;13.20;9.63;;;2.60;54.00;;;;;;5094543;28;20024;-77
2023/04/06 01:09:21;;;;;;;16.48;9.88;;;2.50;54.40;;;;;;5093964;28;20063;-74
2023/04/06 01:11:47;;;;;;;17.40;10.07;;;2.50;55.10;;;;;;5093996;28;20027;-74
2023/04/06 01:14:12;;;;;;;15.23;9.73;;;2.60;54.50;;;;;;5094034;28;20114;-75
2023/04/06 01:16:38;;;;;;;13.50;9.35;;;2.60;54.40;;;;;;5093747;28;20024;-74
2023/04/06 01:19:11;;;;;;;14.18;9.43;;;2.50;54.40;;;;;;5093462;28;20027;-76
2023/04/06 01:21:38;;;;;;;12.38;8.27;;;2.60;54.90;;;;;;5093750;28;20060;-75
2023/04/06 01:24:05;;;;;;;11.40;7.75;;;2.60;54.90;;;;;;5093335;28;20020;-76
2023/04/06 01:26:31;;;;;;;11.30;8.25;;;2.60;54.80;;;;;;5092995;28;20594;-75
2023/04/06 01:28:57;;;;;;;16.17;8.88;;;2.60;54.90;;;;;;5093044;28;20024;-73
2023/04/06 01:31:23;;;;;;;12.57;8.93;;;2.60;55.00;;;;;;5093582;28;20047;-73
2023/04/06 01:33:48;;;;;;;13.57;8.95;;;2.60;55.00;;;;;;5093391;28;20067;-75
2023/04/06 01:36:14;;;;;;;16.95;10.85;;;2.70;54.70;;;;;;5093232;28;20051;-76
2023/04/06 01:38:41;;;;;;;16.05;10.45;;;2.50;54.60;;;;;;5093041;28;20023;-75
2023/04/06 01:41:07;;;;;;;19.08;11.13;;;2.20;55.50;;;;;;5093648;28;20522;-75
2023/04/06 01:43:34;;;;;;;15.13;10.80;;;1.90;56.60;;;;;;5093190;28;20472;-75
2023/04/06 01:46:00;;;;;;;15.07;10.43;;;1.70;57.30;;;;;;5093134;28;20484;-73
2023/04/06 01:48:27;;;;;;;15.20;11.40;;;1.60;57.90;;;;;;5092694;28;20430;-76
2023/04/06 01:50:53;;;;;;;15.52;11.10;;;1.50;58.80;;;;;;5092766;28;20028;-74
2023/04/06 01:53:20;;;;;;;19.77;11.10;;;1.60;57.80;;;;;;5075855;28;20559;-74
2023/04/06 01:55:45;;;;;;;14.60;10.48;;;1.40;58.60;;;;;;5092639;28;20111;-74
2023/04/06 01:58:11;;;;;;;18.83;12.05;;;1.50;58.50;;;;;;5093261;28;20028;-77
2023/04/06 02:00:37;;;;;;;16.85;11.85;;;1.40;58.50;;;;;;5091887;28;20016;-76
2023/04/06 02:03:03;;;;;;;18.65;11.73;;;1.40;58.70;;;;;;5092950;28;20031;-73
2023/04/06 02:05:30;;;;;;;13.50;10.30;;;1.40;58.40;;;;;;5092589;28;20468;-74
2023/04/06 02:07:56;;;;;;;17.35;11.68;;;1.50;59.00;;;;;;5092589;28;20028;-73
2023/04/06 02:10:21;;;;;;;14.13;11.10;;;1.50;58.50;;;;;;5092618;28;20070;-75
2023/04/06 02:12:47;;;;;;;15.25;10.25;;;1.50;58.80;;;;;;5092806;28;20480;-73
2023/04/06 02:15:13;;;;;;;13.73;10.82;;;1.50;58.20;;;;;;5092467;28;20077;-73
2023/04/06 02:17:39;;;;;;;19.45;10.98;;;1.60;59.00;;;;;;5092563;28;20388;-73
2023/04/06 02:20:05;;;;;;;19.08;11.63;;;1.50;57.90;;;;;;5092722;28;20111;-73
2023/04/06 02:22:31;;;;;;;16.77;11.77;;;1.40;57.90;;;;;;5092020;28;20028;-74
2023/04/06 02:24:56;;;;;;;18.20;12.25;;;1.40;58.00;;;;;;5092110;28;20158;-74
2023/04/06 02:27:22;;;;;;;17.13;12.18;;;1.30;58.20;;;;;;5092470;28;20376;-74
2023/04/06 02:29:47;;;;;;;16.98;11.63;;;1.40;58.20;;;;;;5092636;28;20020;-73
2023/04/06 02:32:13;;;;;;;15.98;11.38;;;1.30;58.10;;;;;;5092417;28;20047;-73
2023/04/06 02:34:39;;;;;;;16.52;11.57;;;1.30;57.70;;;;;;5092379;28;20520;-74
2023/04/06 02:37:05;;;;;;;15.57;10.40;;;1.40;57.80;;;;;;5092027;28;20032;-74
2023/04/06 02:39:31;;;;;;;17.42;11.32;;;1.30;58.10;;;;;;5091808;28;20101;-76
2023/04/06 02:41:57;;;;;;;16.15;11.18;;;1.20;58.40;;;;;;5092407;28;20032;-73
2023/04/06 02:44:22;;;;;;;18.40;11.95;;;1.30;58.90;;;;;;5092186;28;20039;-73
2023/04/06 02:46:48;;;;;;;14.40;10.60;;;1.30;58.80;;;;;;5092152;28;20034;-76
2023/04/06 02:49:14;;;;;;;14.70;10.77;;;1.40;58.70;;;;;;5092045;28;20426;-73
2023/04/06 02:51:40;;;;;;;16.60;11.50;;;1.50;59.10;;;;;;5092217;28;20024;-73
2023/04/06 02:54:05;;;;;;;19.20;11.75;;;1.50;57.70;;;;;;5074843;28;20599;-73
2023/04/06 02:56:31;;;;;;;18.38;12.65;;;1.60;57.30;;;;;;5091735;28;20513;-74
2023/04/06 02:58:56;;;;;;;17.27;12.90;;;1.50;57.20;;;;;;5092013;28;20028;-73
2023/04/06 03:01:23;;;;;;;17.60;11.48;;;1.50;57.10;;;;;;5091976;28;20022;-73
2023/04/06 03:03:48;;;;;;;20.80;13.10;;;1.50;57.30;;;;;;5091789;28;20024;-73
2023/04/06 03:06:14;;;;;;;17.30;12.13;;;1.50;57.40;;;;;;5091371;28;20036;-74
2023/04/06 03:08:39;;;;;;;16.60;12.15;;;1.60;57.30;;;;;;5091909;28;20024;-74
2023/04/06 03:11:05;;;;;;;19.40;12.00;;;1.50;57.40;;;;;;5093949;28;20028;-75
2023/04/06 03:13:30;;;;;;;20.23;13.13;;;1.60;57.60;;;;;;5096012;28;20040;-74
2023/04/06 03:15:56;;;;;;;20.08;12.90;;;1.60;57.40;;;;;;5095883;28;20068;-74
2023/04/06 03:18:23;;;;;;;17.35;11.57;;;1.70;57.70;;;;;;5096120;28;20070;-73
2023/04/06 03:20:49;;;;;;;20.83;11.93;;;1.70;57.50;;;;;;5096421;28;20031;-74
2023/04/06 03:23:14;;;;;;;16.67;12.02;;;1.70;57.40;;;;;;5095713;28;20024;-73
2023/04/06 03:25:40;;;;;;;17.80;11.35;;;1.80;57.20;;;;;;5095877;28;20060;-73
2023/04/06 03:28:06;;;;;;;16.35;11.40;;;1.80;57.10;;;;;;5095960;28;20385;-75
2023/04/06 03:30:31;;;;;;;16.15;11.48;;;1.80;56.80;;;;;;5095908;28;20106;-74
2023/04/06 03:32:57;;;;;;;17.35;12.18;;;1.80;56.60;;;;;;5095506;28;20038;-73
2023/04/06 03:35:24;;;;;;;18.17;11.68;;;1.70;56.70;;;;;;5095735;28;20423;-74
2023/04/06 03:37:50;;;;;;;17.38;11.15;;;1.70;56.80;;;;;;5095472;28;20035;-73
2023/04/06 03:40:15;;;;;;;17.08;11.15;;;1.70;56.80;;;;;;5095719;28;20393;-73
2023/04/06 03:42:41;;;;;;;17.63;11.55;;;1.70;56.80;;;;;;5095206;28;20123;-73
2023/04/06 03:45:07;;;;;;;21.17;11.52;;;1.60;56.70;;;;;;5095252;28;20032;-74
2023/04/06 03:47:33;;;;;;;19.30;11.63;;;1.40;56.90;;;;;;5095191;28;20028;-74
2023/04/06 03:49:58;;;;;;;19.02;12.70;;;1.40;57.20;;;;;;5078000;28;20012;-73
2023/04/06 03:52:24;;;;;;;16.35;11.48;;;1.40;57.40;;;;;;5074136;28;20037;-73
2023/04/06 03:54:49;;;;;;;17.77;12.23;;;1.40;57.50;;;;;;5074708;28;20366;-73
2023/04/06 03:57:15;;;;;;;18.83;12.82;;;1.30;57.50;;;;;;5074659;28;20388;-72
2023/04/06 03:59:41;;;;;;;20.05;12.05;;;1.40;57.50;;;;;;5074946;28;20448;-74
2023/04/06 04:02:06;;;;;;;17.25;11.48;;;1.40;57.40;;;;;;5075170;28;20028;-73
2023/04/06 04:04:32;;;;;;;19.42;12.95;;;1.40;57.40;;;;;;5074551;28;20032;-73
2023/04/06 04:06:57;;;;;;;20.23;12.38;;;1.30;57.60;;;;;;5074066;28;20052;-74
2023/04/06 04:09:23;;;;;;;16.23;12.48;;;1.30;57.60;;;;;;5074938;28;20024;-74
2023/04/06 04:11:48;;;;;;;18.45;13.27;;;1.30;57.80;;;;;;5074710;28;20020;-76
2023/04/06 04:14:14;;;;;;;18.60;12.95;;;1.40;57.60;;;;;;5074287;28;20063;-75
2023/04/06 04:16:41;;;;;;;19.38;12.75;;;1.30;57.90;;;;;;5074180;28;20458;-74
2023/04/06 04:19:06;;;;;;;22.40;13.15;;;1.30;57.60;;;;;;5074567;28;20032;-73
2023/04/06 04:21:32;;;;;;;20.33;12.13;;;1.30;57.60;;;;;;5074073;28;20100;-73
2023/04/06 04:23:58;;;;;;;21.08;12.90;;;1.30;57.70;;;;;;5073367;28;20056;-73
2023/04/06 04:26:23;;;;;;;18.23;12.25;;;1.20;58.10;;;;;;5074361;28;20032;-75
2023/04/06 04:28:49;;;;;;;19.88;12.70;;;1.10;58.50;;;;;;5074221;28;20123;-73
2023/04/06 04:31:17;;;;;;;19.10;12.88;;;1.10;58.70;;;;;;5074520;28;20052;-73
2023/04/06 04:33:42;;;;;;;22.17;13.30;;;1.10;58.90;;;;;;5057991;28;20032;-74
2023/04/06 04:36:08;;;;;;;17.85;13.30;;;1.10;58.90;;;;;;5073851;28;20095;-73
2023/04/06 04:38:34;;;;;;;17.27;13.10;;;1.10;58.70;;;;;;5068682;28;20081;-73
2023/04/06 04:40:59;;;;;;;17.92;13.50;;;1.10;58.80;;;;;;5073980;28;20136;-76
2023/04/06 04:43:25;;;;;;;16.00;12.55;;;1.00;58.50;;;;;;5073797;28;20075;-73
2023/04/06 04:45:52;;;;;;;17.33;12.45;;;1.00;58.60;;;;;;5074154;28;20040;-72
2023/04/06 04:48:17;;;;;;;20.90;13.20;;;1.10;58.60;;;;;;5074140;28;20024;-73
2023/04/06 04:50:43;;;;;;;20.13;13.48;;;1.00;58.50;;;;;;5074315;28;20027;-73
2023/04/06 04:53:08;;;;;;;20.77;13.40;;;1.10;58.70;;;;;;5073987;28;20121;-76
2023/04/06 04:55:34;;;;;;;20.33;13.32;;;1.10;58.60;;;;;;5073744;28;20024;-74
2023/04/06 04:57:59;;;;;;;18.92;13.05;;;1.10;58.50;;;;;;5073893;28;20043;-73
2023/04/06 05:00:25;;;;;;;23.60;13.50;;;1.10;58.60;;;;;;5074287;28;20020;-72
2023/04/06 05:02:51;;;;;;;22.33;14.20;;;1.10;58.60;;;;;;5073728;28;20031;-73
2023/04/06 05:05:16;;;;;;;20.88;14.70;;;1.10;58.60;;;;;;5074773;28;20020;-74
2023/04/06 05:07:42;;;;;;;24.65;14.38;;;1.10;58.50;;;;;;5074843;28;20029;-75
2023/04/06 05:10:08;;;;;;;20.35;14.35;;;1.10;58.40;;;;;;5078761;28;20073;-74
2023/04/06 05:12:34;;;;;;;22.63;15.38;;;1.10;58.60;;;;;;5073295;28;20032;-74
2023/04/06 05:15:00;;;;;;;28.08;17.27;;;1.00;58.60;;;;;;5074512;28;20048;-74
2023/04/06 05:17:25;;;;;;;23.65;15.70;;;1.10;58.60;;;;;;5074665;28;20229;-74
2023/04/06 05:19:51;;;;;;;25.13;17.05;;;1.10;58.60;;;;;;5074995;28;20021;-73
2023/04/06 05:22:17;;;;;;;32.45;17.30;;;1.10;58.60;;;;;;5074483;28;20024;-73
2023/04/06 05:24:43;;;;;;;25.33;16.70;;;1.20;58.40;;;;;;5073070;28;20108;-74
2023/04/06 05:27:09;;;;;;;27.70;16.65;;;1.10;58.50;;;;;;5074416;28;20020;-74
2023/04/06 05:29:35;;;;;;;25.80;17.27;;;1.10;58.80;;;;;;5074500;28;20416;-75
2023/04/06 05:32:01;;;;;;;28.13;17.88;;;1.20;58.60;;;;;;5074192;28;20103;-73
2023/04/06 05:34:26;;;;;;;24.35;16.23;;;1.20;58.50;;;;;;5072801;28;20123;-72
2023/04/06 05:36:52;;;;;;;27.85;17.42;;;1.20;58.50;;;;;;5074371;28;20028;-76
2023/04/06 05:39:18;;;;;;;25.40;17.17;;;1.20;58.40;;;;;;5074160;28;20056;-74
2023/04/06 05:41:43;;;;;;;23.35;16.05;;;1.30;58.30;;;;;;5074236;28;20036;-73
2023/04/06 05:44:09;;;;;;;22.77;15.82;;;1.30;58.30;;;;;;5073705;28;20111;-73
2023/04/06 05:46:34;;;;;;;24.25;15.90;;;1.40;58.10;;;;;;5073884;28;20374;-73
2023/04/06 05:49:00;;;;;;;24.33;15.55;;;1.40;57.80;;;;;;5074539;28;20051;-73
2023/04/06 05:51:27;;;;;;;23.90;14.60;;;1.40;58.00;;;;;;5072940;28;20028;-73
2023/04/06 05:53:52;;;;;;;23.42;15.50;;;1.50;57.90;;;;;;5073592;28;20036;-73
2023/04/06 05:56:18;;;;;;;25.17;14.23;;;1.60;57.40;;;;;;5073923;28;20110;-75
2023/04/06 05:58:43;;;;;;;22.20;13.60;;;1.60;57.20;;;;;;5074042;28;20036;-74
2023/04/06 06:01:09;;;;;;;22.05;14.00;;;1.80;57.70;;;;;;5073835;28;20144;-75
2023/04/06 06:03:35;;;;;;;28.92;14.82;;;1.80;56.40;;;;;;5073767;28;20483;-75
2023/04/06 06:06:01;;;;;;;26.35;15.52;;;1.90;56.40;;;;;;5073886;28;20116;-78
2023/04/06 06:08:27;;;;;;;23.83;14.82;;;2.10;56.10;;;;;;5073965;28;20077;-77
2023/04/06 06:10:53;;;;;;;28.10;14.35;;;2.10;55.70;;;;;;5073558;28;20099;-74
2023/04/06 06:13:19;;;;;;;24.35;13.98;;;2.20;55.40;;;;;;5073572;28;20032;-73
2023/04/06 06:15:46;;;;;;;23.02;14.75;;;2.20;55.20;;;;;;5073329;28;20381;-73
2023/04/06 06:18:11;;;;;;;24.30;14.07;;;2.30;54.90;;;;;;5072168;28;20477;-73
2023/04/06 06:20:37;;;;;;;21.98;13.32;;;2.50;54.60;;;;;;5072469;28;20035;-73
2023/04/06 06:23:02;;;;;;;23.90;13.88;;;2.60;54.40;;;;;;5073407;28;20130;-73
2023/04/06 06:25:30;;;;;;;24.58;13.70;;;2.70;54.20;;;;;;5073368;28;20104;-74
2023/04/06 06:27:56;;;;;;;26.80;14.25;;;2.80;53.70;;;;;;5073325;28;20024;-74
2023/04/06 06:30:22;;;;;;;23.13;13.88;;;2.90;53.20;;;;;;5073233;28;20358;-75
2023/04/06 06:32:47;;;;;;;23.20;14.82;;;3.00;53.10;;;;;;5073333;28;20107;-74
2023/04/06 06:35:13;;;;;;;27.75;17.70;;;3.10;53.00;;;;;;5075167;28;20081;-73
2023/04/06 06:37:38;;;;;;;40.92;24.65;;;3.20;52.40;;;;;;5076140;28;20028;-73
2023/04/06 06:40:04;;;;;;;29.60;19.98;;;3.30;52.20;;;;;;5073617;28;20037;-73
2023/04/06 06:42:30;;;;;;;22.45;13.70;;;3.40;51.70;;;;;;5073513;28;20032;-74
2023/04/06 06:44:56;;;;;;;22.30;13.30;;;3.50;51.30;;;;;;5078655;28;20445;-74
2023/04/06 06:47:21;;;;;;;16.98;11.07;;;3.70;51.20;;;;;;5082741;28;20555;-74
2023/04/06 06:49:47;;;;;;;16.33;10.80;;;3.80;50.90;;;;;;5082443;28;20016;-74
2023/04/06 06:52:12;;;;;;;20.63;12.20;;;3.90;51.00;;;;;;5086081;28;20043;-75
2023/04/06 06:54:38;;;;;;;24.27;11.82;;;4.20;50.60;;;;;;5089877;28;20044;-76
2023/04/06 06:57:03;;;;;;;18.92;12.13;;;4.30;51.00;;;;;;5085725;28;20025;-78
2023/04/06 06:59:29;;;;;;;18.60;11.07;;;4.50;50.40;;;;;;5074491;28;20114;-77
2023/04/06 07:01:55;;;;;;;17.83;11.35;;;4.60;49.40;;;;;;5074135;28;20020;-77
2023/04/06 07:04:20;;;;;;;19.58;12.02;;;4.80;49.00;;;;;;5076833;28;20020;-78
2023/04/06 07:06:46;;;;;;;17.52;11.02;;;4.90;48.60;;;;;;5075495;28;20036;-75
2023/04/06 07:09:11;;;;;;;31.33;19.08;;;5.10;48.50;;;;;;5074175;28;20025;-78
2023/04/06 07:11:37;;;;;;;27.33;16.45;;;5.30;48.00;;;;;;5072965;28;20028;-78
2023/04/06 07:14:03;;;;;;;21.65;13.38;;;5.40;47.30;;;;;;5072626;28;20357;-76
2023/04/06 07:16:28;;;;;;;21.63;13.10;;;5.60;46.80;;;;;;5072376;28;20031;-73
2023/04/06 07:18:54;;;;;;;22.77;12.95;;;5.70;46.50;;;;;;5072774;28;20074;-73
2023/04/06 07:21:20;;;;;;;19.13;11.88;;;5.90;47.10;;;;;;5072625;28;20081;-74
2023/04/06 07:23:47;;;;;;;25.02;13.73;;;6.00;47.80;;;;;;5072952;28;20118;-73
2023/04/06 07:26:13;;;;;;;23.05;14.07;;;6.10;47.80;;;;;;5072621;28;20021;-73
2023/04/06 07:28:39;;;;;;;24.55;14.48;;;6.10;47.70;;;;;;5072958;28;20050;-73
2023/04/06 07:31:05;;;;;;;24.50;13.73;;;6.10;47.50;;;;;;5072580;28;20074;-77
2023/04/06 07:33:30;;;;;;;22.77;13.48;;;6.20;47.00;;;;;;5072365;28;20040;-73
2023/04/06 07:35:58;;;;;;;22.70;13.45;;;6.20;46.70;;;;;;5072451;28;20024;-72
2023/04/06 07:38:23;;;;;;;23.02;14.35;;;6.20;46.40;;;;;;5072646;28;20135;-74
2023/04/06 07:40:49;;;;;;;17.42;12.50;;;6.30;46.40;;;;;;5072207;28;20044;-74
2023/04/06 07:43:15;;;;;;;19.35;12.38;;;6.30;46.10;;;;;;5072229;28;20039;-75
2023/04/06 07:45:41;;;;;;;21.70;12.30;;;6.20;46.00;;;;;;5072010;28;20027;-77
2023/04/06 07:48:06;;;;;;;19.90;11.25;;;6.20;45.90;;;;;;5071013;28;20029;-76
2023/04/06 07:50:32;;;;;;;19.67;10.82;;;6.30;46.20;;;;;;5072534;28;20093;-77
2023/04/06 07:52:57;;;;;;;18.00;10.88;;;6.50;46.00;;;;;;5072553;28;20033;-75
2023/04/06 07:55:23;;;;;;;16.83;9.93;;;6.60;45.70;;;;;;5072582;28;20074;-77
2023/04/06 07:57:49;;;;;;;17.90;9.38;;;6.70;45.20;;;;;;5073612;28;20388;-77
2023/04/06 08:00:15;;;;;;;20.55;10.00;;;6.80;43.60;;;;;;5076554;28;20128;-74
2023/04/06 08:02:40;;;;;;;16.73;9.80;;;7.00;44.40;;;;;;5080767;28;20358;-74
2023/04/06 08:05:06;;;;;;;15.63;9.73;;;7.00;42.10;;;;;;5083107;28;20033;-78
2023/04/06 08:07:32;;;;;;;19.45;10.45;;;7.10;43.00;;;;;;5076160;28;20041;-74
2023/04/06 08:09:58;;;;;;;13.18;7.47;;;7.30;41.80;;;;;;5076027;28;20021;-73
2023/04/06 08:12:23;;;;;;;15.23;8.45;;;7.40;40.10;;;;;;5077057;28;20048;-74
2023/04/06 08:14:49;;;;;;;20.40;5.97;;;7.40;40.00;;;;;;5075653;28;20035;-73
2023/04/06 08:17:14;;;;;;;11.60;7.22;;;7.70;61.70;;;;;;5074152;28;20028;-74
2023/04/06 08:19:43;;;;;;;18.52;8.23;;;8.20;54.30;;;;;;5076067;28;20024;-73
2023/04/06 08:22:09;;;;;;;14.10;7.22;;;8.70;45.70;;;;;;5075506;28;20020;-75
2023/04/06 08:24:34;;;;;;;12.73;7.00;;;9.00;43.90;;;;;;5075452;28;20028;-74
2023/04/06 08:27:00;;;;;;;11.57;6.90;;;9.30;44.20;;;;;;5075595;28;20027;-74
2023/04/06 08:29:25;;;;;;;11.60;6.70;;;9.50;41.40;;;;;;5075824;28;20056;-74
2023/04/06 08:31:51;;;;;;;9.63;5.95;;;9.80;43.10;;;;;;5075423;28;20039;-75
2023/04/06 08:34:17;;;;;;;10.93;5.93;;;10.10;37.00;;;;;;5075548;28;20037;-74
2023/04/06 08:36:42;;;;;;;8.32;5.55;;;10.00;36.40;;;;;;5075022;28;20025;-73
2023/04/06 08:39:08;;;;;;;10.23;5.63;;;10.20;39.60;;;;;;5075063;28;20045;-73
2023/04/06 08:41:34;;;;;;;8.90;5.68;;;10.40;36.30;;;;;;5075041;28;20056;-73
2023/04/06 08:44:01;;;;;;;10.07;5.97;;;10.70;35.90;;;;;;5075430;28;20020;-75
2023/04/06 08:46:30;;;;;;;11.15;5.95;;;10.90;33.80;;;;;;5075442;28;20025;-78
2023/04/06 08:49:06;;;;;;;9.82;5.25;;;11.20;35.10;;;;;;5075676;28;20024;-78
2023/04/06 08:51:32;;;;;;;7.78;4.82;;;11.40;33.60;;;;;;5075091;28;20418;-75
2023/04/06 08:53:59;;;;;;;8.13;5.60;;;11.60;31.20;;;;;;5074800;28;20085;-78
2023/04/06 08:56:26;;;;;;;9.18;5.78;;;11.40;28.30;;;;;;5075417;28;20397;-80
2023/04/06 08:58:55;;;;;;;11.05;5.70;;;10.90;27.90;;;;;;5075649;28;20033;-79
2023/04/06 09:01:25;;;;;;;10.40;6.28;;;10.50;29.40;;;;;;5073961;28;20021;-75
2023/04/06 09:03:54;;;;;;;9.95;6.55;;;10.20;30.60;;;;;;5075106;28;20021;-75
2023/04/06 09:06:20;;;;;;;11.48;6.57;;;9.90;31.00;;;;;;5074769;28;20048;-76
2023/04/06 09:08:46;;;;;;;9.35;6.18;;;9.90;31.90;;;;;;5074721;28;20430;-72
2023/04/06 09:11:11;;;;;;;9.05;6.38;;;9.90;31.10;;;;;;5074266;28;20039;-73
2023/04/06 09:13:55;;;;;;;9.77;5.78;;;9.80;30.60;;;;;;5074492;28;20043;-73
2023/04/06 09:16:21;;;;;;;8.95;5.32;;;9.90;30.10;;;;;;5073057;28;20021;-73
2023/04/06 09:18:47;;;;;;;6.70;4.90;;;10.00;29.50;;;;;;5073533;28;20033;-77
2023/04/06 09:21:16;;;;;;;8.98;5.70;;;10.10;29.00;;;;;;5074268;28;20409;-73
2023/04/06 09:23:42;;;;;;;8.10;5.38;;;10.00;29.10;;;;;;5074878;28;20016;-73
2023/04/06 09:26:07;;;;;;;10.05;6.20;;;10.10;31.00;;;;;;5079830;28;20029;-75
2023/04/06 09:28:52;;;;;;;11.00;6.07;;;10.20;31.30;;;;;;5074793;28;20021;-75
2023/04/06 09:31:30;;;;;;;8.18;5.85;;;10.20;30.70;;;;;;5074578;28;20048;-75
2023/04/06 09:33:56;;;;;;;9.13;5.82;;;10.00;28.40;;;;;;5074134;28;20036;-74
2023/04/06 09:36:31;;;;;;;9.50;6.38;;;9.80;30.10;;;;;;5074036;28;20021;-74
2023/04/06 09:39:01;;;;;;;;;;;9.90;28.90;;;;;;5079686;28;20048;-74
2023/04/06 09:41:30;;;;;;;8.88;5.63;;;10.10;28.20;;;;;;5084998;28;19919;-76
2023/04/06 09:44:09;;;;;;;10.15;5.80;;;10.30;28.40;;;;;;5082536;28;20372;-75
2023/04/06 09:46:40;;;;;;;12.93;6.78;;;10.40;28.20;;;;;;5084010;28;20480;-75
2023/04/06 09:49:07;;;;;;;9.88;5.88;;;10.30;28.40;;;;;;5084471;28;20008;-76
2023/04/06 09:51:47;;;;;;;10.82;5.50;;;10.40;28.50;;;;;;5082650;28;20538;-75
2023/04/06 09:54:20;;;;;;;9.73;6.45;;;10.60;29.60;;;;;;5082825;28;20059;-74
2023/04/06 09:56:47;;;;;;;9.27;5.68;;;10.80;29.00;;;;;;5081487;28;20069;-74
2023/04/06 09:59:16;;;;;;;9.25;5.85;;;11.00;28.30;;;;;;5085401;28;20480;-74
2023/04/06 10:01:42;;;;;;;8.32;5.70;;;11.20;27.60;;;;;;5093494;28;20519;-76
2023/04/06 10:04:24;;;;;;;7.80;5.57;;;11.20;28.30;;;;;;5093796;28;20024;-75
2023/04/06 10:06:52;;;;;;;11.70;6.32;;;11.30;28.10;;;;;;5093675;28;20032;-75
2023/04/06 10:09:18;;;;;;;9.25;5.88;;;11.50;28.70;;;;;;5093362;28;20056;-74
2023/04/06 10:11:45;;;;;;;7.72;5.60;;;11.70;28.40;;;;;;5093629;28;20035;-73
2023/04/06 10:14:11;;;;;;;12.90;5.85;;;11.60;27.30;;;;;;5093570;28;20032;-78
2023/04/06 10:16:37;;;;;;;7.55;5.68;;;11.70;27.10;;;;;;5092371;28;20111;-75
2023/04/06 10:19:11;;;;;;;11.30;6.20;;;11.80;26.20;;;;;;5094433;28;20028;-74
2023/04/06 10:21:39;;;;;;;10.23;6.25;;;11.90;26.80;;;;;;5092683;28;20020;-73
2023/04/06 10:24:10;;;;;;;9.93;6.45;;;12.20;26.20;;;;;;5093286;28;20031;-73
2023/04/06 10:26:36;;;;;;;11.32;6.20;;;12.50;25.90;;;;;;5093160;28;20443;-74
2023/04/06 10:29:05;;;;;;;7.88;5.70;;;12.50;24.90;;;;;;5093803;28;20020;-74
2023/04/06 10:31:31;;;;;;;9.30;6.20;;;12.40;25.60;;;;;;5093230;28;20117;-73
2023/04/06 10:33:59;;;;;;;8.10;6.18;;;12.50;25.10;;;;;;5093054;28;20072;-74
2023/04/06 10:36:35;;;;;;;7.88;5.78;;;12.70;24.70;;;;;;5092922;28;20012;-74
2023/04/06 10:39:06;;;;;;;10.20;6.18;;;13.00;24.20;;;;;;5093763;28;20040;-74
2023/04/06 10:41:42;;;;;;;8.25;5.47;;;13.00;24.20;;;;;;5092637;28;20051;-74
2023/04/06 10:44:16;;;;;;;7.80;5.60;;;13.20;22.40;;;;;;5093140;28;20027;-73
2023/04/06 10:46:53;;;;;;;8.07;5.30;;;13.30;22.20;;;;;;5092773;28;20119;-74
2023/04/06 10:49:20;;;;;;;7.65;5.65;;;13.20;22.60;;;;;;5093171;28;20023;-73
2023/04/06 10:51:50;;;;;;;8.73;5.78;;;13.40;21.10;;;;;;5092901;28;20020;-74
2023/04/06 10:54:17;;;;;;;8.35;5.70;;;13.40;22.30;;;;;;5089157;28;20192;-76
2023/04/06 10:56:43;;;;;;;8.75;5.40;;;13.50;22.50;;;;;;5092049;28;20013;-73
2023/04/06 10:59:08;;;;;;;10.75;5.50;;;13.60;23.40;;;;;;5092983;28;20024;-74
2023/04/06 11:01:34;;;;;;;9.52;5.90;;;13.60;21.10;;;;;;5092519;28;20031;-76
2023/04/06 11:03:59;;;;;;;8.35;5.22;;;13.30;21.40;;;;;;5092445;28;20036;-76
2023/04/06 11:06:27;;;;;;;9.65;4.93;;;13.50;22.00;;;;;;5092685;28;20028;-75
2023/04/06 11:08:54;;;;;;;7.38;4.70;;;13.50;21.60;;;;;;5092851;28;20046;-74
2023/04/06 11:11:21;;;;;;;9.18;5.18;;;13.50;21.50;;;;;;5092573;28;20028;-74
2023/04/06 11:13:56;;;;;;;12.50;7.32;;;13.40;21.40;;;;;;5092467;28;20514;-74
2023/04/06 11:16:30;;;;;;;8.60;5.93;;;13.70;20.50;;;;;;5092417;28;20028;-74
2023/04/06 11:18:58;;;;;;;7.15;5.20;;;13.90;20.20;;;;;;5093004;28;20518;-76
2023/04/06 11:21:46;;;;;;;8.10;4.90;;;13.70;21.00;;;;;;5092882;28;20495;-76
2023/04/06 11:24:24;;;;;;;7.18;5.20;;;13.90;20.20;;;;;;5092293;28;20063;-75
2023/04/06 11:26:58;;;;;;;8.82;5.97;;;13.80;20.90;;;;;;5092439;28;20012;-75
2023/04/06 11:29:26;;;;;;;7.97;5.38;;;14.30;20.60;;;;;;5093045;28;20031;-75
2023/04/06 11:32:03;;;;;;;11.63;6.45;;;14.40;21.00;;;;;;5094000;28;20085;-73
2023/04/06 11:34:32;;;;;;;7.43;5.15;;;14.40;21.70;;;;;;5096960;28;20457;-73
2023/04/06 11:37:06;;;;;;;13.57;5.85;;;14.50;20.90;;;;;;5096348;28;20012;-74
2023/04/06 11:39:37;;;;;;;15.40;7.53;;;14.80;20.30;;;;;;5096585;28;20606;-74
2023/04/06 11:42:03;;;;;;;8.40;6.35;;;15.10;19.90;;;;;;5096374;28;20107;-73
2023/04/06 11:44:40;;;;;;;10.18;6.00;;;15.00;20.00;;;;;;5096270;28;20029;-74
2023/04/06 11:47:08;;;;;;;8.63;5.00;;;15.30;19.90;;;;;;5095891;28;20437;-73
2023/04/06 11:49:37;;;;;;;10.60;5.28;;;15.60;18.90;;;;;;5095000;28;20445;-75
2023/04/06 11:52:13;;;;;;;7.32;4.85;;;15.40;19.40;;;;;;5096007;28;20017;-73
2023/04/06 11:54:40;;;;;;;7.90;4.82;;;15.70;19.10;;;;;;5095735;28;20358;-75
2023/04/06 11:57:08;;;;;;;14.18;8.23;;;15.70;18.80;;;;;;5095909;28;20494;-74
2023/04/06 11:59:33;;;;;;;10.55;6.85;;;16.00;18.70;;;;;;5095138;28;20028;-74
2023/04/06 12:01:59;;;;;;;11.00;6.85;;;16.50;17.90;;;;;;5094507;28;20012;-75
2023/04/06 12:04:25;;;;;;;8.25;5.70;;;16.70;16.50;;;;;;5095190;28;20027;-74
2023/04/06 12:06:50;;;;;;;8.05;4.72;;;16.60;17.30;;;;;;5094995;28;20024;-73
2023/04/06 12:09:20;;;;;;;6.40;4.00;;;16.70;16.50;;;;;;5096326;28;20905;-75
2023/04/06 12:11:45;;;;;;;7.35;4.68;;;16.50;16.40;;;;;;5095213;28;20027;-76
2023/04/06 12:14:12;;;;;;;7.80;4.75;;;16.20;16.20;;;;;;5096163;28;20036;-77
2023/04/06 12:16:38;;;;;;;6.40;4.35;;;16.30;15.90;;;;;;5100551;28;20376;-74
2023/04/06 12:19:03;;;;;;;7.18;4.65;;;16.50;16.40;;;;;;5096398;28;20028;-75
2023/04/06 12:21:30;;;;;;;5.68;4.47;;;16.50;17.30;;;;;;5094631;28;20039;-77
2023/04/06 12:23:56;;;;;;;9.98;4.18;;;16.40;17.30;;;;;;5095442;28;20028;-77
2023/04/06 12:26:22;;;;;;;5.45;4.60;;;16.70;17.70;;;;;;5095697;28;20107;-78
2023/04/06 12:28:48;;;;;;;7.57;4.07;;;17.20;17.40;;;;;;5094430;28;20135;-76
2023/04/06 12:31:17;;;;;;;6.15;3.92;;;17.60;17.40;;;;;;5095263;28;20116;-77
2023/04/06 12:33:46;;;;;;;4.75;3.47;;;17.70;15.00;;;;;;5095030;28;20085;-75
2023/04/06 12:36:13;;;;;;;5.15;3.60;;;17.70;15.00;;;;;;5095333;28;20533;-76
2023/04/06 12:38:40;;;;;;;8.15;6.35;;;17.80;14.10;;;;;;5096264;28;20024;-77